createdAt,value
2018-05-03T00:00:45.564Z,13.73
2018-05-03T00:01:45.562Z,13.72
2018-05-03T00:02:45.566Z,13.69
2018-05-03T00:03:45.683Z,13.67
2018-05-03T00:04:45.559Z,13.66
2018-05-03T00:05:45.548Z,13.69
2018-05-03T00:06:45.556Z,13.67
2018-05-03T00:07:45.697Z,13.66
2018-05-03T00:08:45.551Z,13.66
2018-05-03T00:09:45.666Z,13.66
2018-05-03T00:10:45.551Z,13.69
2018-05-03T00:11:45.589Z,13.67
2018-05-03T00:12:45.580Z,13.7
2018-05-03T00:13:45.572Z,13.67
2018-05-03T00:14:45.585Z,13.66
2018-05-03T00:15:45.601Z,13.69
2018-05-03T00:16:45.596Z,13.67
2018-05-03T00:17:45.576Z,13.64
2018-05-03T00:18:45.576Z,13.67
2018-05-03T00:19:45.576Z,13.66
2018-05-03T00:20:45.584Z,13.66
2018-05-03T00:21:45.569Z,13.69
2018-05-03T00:22:45.569Z,13.67
2018-05-03T00:23:45.607Z,13.7
2018-05-03T00:24:45.570Z,13.67
2018-05-03T00:25:45.551Z,13.67
2018-05-03T00:26:45.775Z,13.67
2018-05-03T00:27:45.571Z,13.69
2018-05-03T00:28:45.562Z,13.7
2018-05-03T00:29:45.577Z,13.69
2018-05-03T00:30:45.587Z,13.69
2018-05-03T00:31:45.695Z,13.69
2018-05-03T00:32:45.546Z,13.69
2018-05-03T00:33:45.700Z,13.63
2018-05-03T00:34:45.566Z,13.64
2018-05-03T00:35:45.579Z,13.64
2018-05-03T00:36:45.579Z,13.63
2018-05-03T00:37:45.745Z,13.64
2018-05-03T00:38:45.557Z,13.63
2018-05-03T00:39:45.580Z,13.6
2018-05-03T00:40:45.556Z,13.6
2018-05-03T00:41:45.749Z,13.57
2018-05-03T00:42:45.570Z,13.57
2018-05-03T00:43:45.570Z,13.59
2018-05-03T00:44:45.647Z,13.57
2018-05-03T00:45:46.027Z,13.59
2018-05-03T00:46:45.561Z,13.57
2018-05-03T00:47:45.577Z,13.57
2018-05-03T00:48:45.572Z,13.59
2018-05-03T00:49:45.578Z,13.56
2018-05-03T00:50:45.573Z,13.56
2018-05-03T00:51:45.579Z,13.55
2018-05-03T00:52:45.560Z,13.59
2018-05-03T00:53:45.569Z,13.59
2018-05-03T00:54:45.592Z,13.59
2018-05-03T00:55:45.563Z,13.57
2018-05-03T00:56:45.570Z,13.59
2018-05-03T00:57:45.576Z,13.63
2018-05-03T00:58:45.591Z,13.62
2018-05-03T00:59:45.597Z,13.62
2018-05-03T01:00:45.552Z,13.59
2018-05-03T01:01:45.559Z,13.59
2018-05-03T01:02:45.664Z,13.56
2018-05-03T01:03:45.578Z,13.59
2018-05-03T01:04:45.569Z,13.56
2018-05-03T01:05:45.568Z,13.52
2018-05-03T01:06:45.573Z,13.47
2018-05-03T01:07:45.608Z,13.5
2018-05-03T01:08:45.602Z,13.47
2018-05-03T01:09:45.573Z,13.49
2018-05-03T01:10:45.599Z,13.47
2018-05-03T01:11:45.576Z,13.46
2018-05-03T01:12:45.604Z,13.45
2018-05-03T01:13:45.610Z,13.42
2018-05-03T01:14:45.575Z,13.38
2018-05-03T01:15:45.616Z,13.36
2018-05-03T01:16:45.636Z,13.36
2018-05-03T01:17:45.615Z,13.32
2018-05-03T01:18:45.599Z,13.32
2018-05-03T01:19:45.617Z,13.29
2018-05-03T01:20:45.671Z,13.31
2018-05-03T01:21:45.607Z,13.29
2018-05-03T01:22:45.581Z,13.28
2018-05-03T01:23:45.655Z,13.28
2018-05-03T01:24:45.562Z,13.27
2018-05-03T01:25:45.648Z,13.22
2018-05-03T01:26:45.597Z,13.24
2018-05-03T01:27:45.729Z,13.18
2018-05-03T01:28:45.570Z,13.22
2018-05-03T01:29:45.584Z,13.21
2018-05-03T01:30:45.585Z,13.25
2018-05-03T01:31:45.592Z,13.25
2018-05-03T01:32:45.590Z,13.22
2018-05-03T01:33:45.581Z,13.24
2018-05-03T01:34:45.572Z,13.25
2018-05-03T01:35:45.571Z,13.25
2018-05-03T01:36:45.572Z,13.22
2018-05-03T01:37:45.578Z,13.27
2018-05-03T01:38:45.672Z,13.27
2018-05-03T01:39:45.588Z,13.27
2018-05-03T01:40:45.569Z,13.25
2018-05-03T01:41:45.586Z,13.25
2018-05-03T01:42:45.607Z,13.22
2018-05-03T01:43:45.609Z,13.25
2018-05-03T01:44:45.585Z,13.22
2018-05-03T01:45:45.618Z,13.27
2018-05-03T01:46:45.601Z,13.28
2018-05-03T01:47:45.618Z,13.27
2018-05-03T01:48:45.763Z,13.27
2018-05-03T01:49:45.803Z,13.27
2018-05-03T01:50:45.606Z,13.27
2018-05-03T01:51:45.594Z,13.27
2018-05-03T01:52:45.613Z,13.28
2018-05-03T01:53:45.628Z,13.27
2018-05-03T01:54:46.333Z,13.25
2018-05-03T01:55:45.609Z,13.29
2018-05-03T01:56:45.619Z,13.28
2018-05-03T01:57:45.615Z,13.28
2018-05-03T01:58:45.618Z,13.32
2018-05-03T01:59:45.599Z,13.31
2018-05-03T02:00:45.606Z,13.31
2018-05-03T02:01:45.630Z,13.31
2018-05-03T02:02:45.602Z,13.28
2018-05-03T02:03:45.634Z,13.25
2018-05-03T02:04:45.592Z,13.24
2018-05-03T02:05:45.591Z,13.24
2018-05-03T02:06:45.618Z,13.27
2018-05-03T02:07:45.601Z,13.25
2018-05-03T02:08:45.611Z,13.27
2018-05-03T02:09:45.600Z,13.25
2018-05-03T02:10:45.629Z,13.25
2018-05-03T02:11:45.596Z,13.18
2018-05-03T02:12:45.628Z,13.21
2018-05-03T02:13:45.601Z,13.19
2018-05-03T02:14:45.620Z,13.22
2018-05-03T02:15:45.590Z,13.19
2018-05-03T02:16:45.623Z,13.22
2018-05-03T02:17:45.700Z,13.22
2018-05-03T02:18:45.608Z,13.24
2018-05-03T02:19:45.614Z,13.25
2018-05-03T02:20:45.616Z,13.25
2018-05-03T02:21:45.653Z,13.27
2018-05-03T02:22:45.619Z,13.25
2018-05-03T02:23:45.626Z,13.25
2018-05-03T02:24:45.603Z,13.25
2018-05-03T02:25:45.608Z,13.24
2018-05-03T02:26:45.607Z,13.22
2018-05-03T02:27:45.596Z,13.22
2018-05-03T02:28:45.621Z,13.21
2018-05-03T02:29:45.614Z,13.21
2018-05-03T02:30:45.632Z,13.15
2018-05-03T02:31:45.699Z,13.14
2018-05-03T02:32:45.628Z,13.13
2018-05-03T02:33:45.617Z,13.13
2018-05-03T02:34:45.627Z,13.1
2018-05-03T02:35:45.618Z,13.08
2018-05-03T02:36:45.623Z,13.08
2018-05-03T02:37:45.604Z,13.08
2018-05-03T02:38:45.621Z,13.08
2018-05-03T02:39:45.666Z,13.08
2018-05-03T02:40:45.647Z,13.07
2018-05-03T02:41:45.632Z,13.1
2018-05-03T02:42:45.757Z,13.08
2018-05-03T02:43:45.625Z,13.06
2018-05-03T02:44:45.685Z,13.04
2018-05-03T02:45:45.622Z,13.04
2018-05-03T02:46:45.677Z,13.04
2018-05-03T02:47:45.658Z,13.04
2018-05-03T02:48:45.620Z,13.06
2018-05-03T02:49:45.641Z,13.04
2018-05-03T02:50:45.768Z,13.04
2018-05-03T02:51:45.621Z,13.06
2018-05-03T02:52:45.649Z,13.06
2018-05-03T02:53:45.756Z,13.04
2018-05-03T02:54:45.629Z,13.03
2018-05-03T02:55:45.643Z,13.03
2018-05-03T02:56:45.650Z,13.03
2018-05-03T02:57:45.641Z,13.04
2018-05-03T02:58:45.616Z,13.01
2018-05-03T02:59:45.648Z,13.01
2018-05-03T03:00:45.639Z,13.01
2018-05-03T03:01:45.631Z,13
2018-05-03T03:02:45.616Z,12.99
2018-05-03T03:03:45.638Z,12.97
2018-05-03T03:04:45.625Z,13
2018-05-03T03:05:45.720Z,12.97
2018-05-03T03:06:45.664Z,12.99
2018-05-03T03:07:45.650Z,13
2018-05-03T03:08:45.657Z,12.96
2018-05-03T03:09:46.198Z,12.96
2018-05-03T03:10:45.651Z,12.93
2018-05-03T03:11:45.678Z,12.93
2018-05-03T03:12:45.639Z,12.93
2018-05-03T03:13:45.631Z,12.94
2018-05-03T03:14:45.650Z,12.93
2018-05-03T03:15:45.645Z,12.93
2018-05-03T03:16:45.634Z,12.94
2018-05-03T03:17:45.646Z,12.93
2018-05-03T03:18:45.635Z,12.93
2018-05-03T03:19:45.622Z,12.94
2018-05-03T03:20:45.649Z,12.93
2018-05-03T03:21:45.649Z,12.91
2018-05-03T03:22:45.638Z,12.93
2018-05-03T03:23:45.655Z,12.93
2018-05-03T03:24:45.640Z,12.93
2018-05-03T03:25:45.627Z,12.93
2018-05-03T03:26:45.644Z,12.94
2018-05-03T03:27:45.640Z,12.93
2018-05-03T03:28:45.632Z,12.91
2018-05-03T03:29:45.636Z,12.91
2018-05-03T03:30:45.696Z,12.91
2018-05-03T03:31:45.701Z,12.93
2018-05-03T03:32:45.811Z,12.91
2018-05-03T03:33:45.672Z,12.93
2018-05-03T03:34:45.653Z,12.9
2018-05-03T03:35:45.650Z,12.9
2018-05-03T03:36:45.656Z,12.88
2018-05-03T03:37:45.637Z,12.91
2018-05-03T03:38:45.832Z,12.9
2018-05-03T03:39:45.657Z,12.9
2018-05-03T03:40:45.721Z,12.9
2018-05-03T03:41:45.634Z,12.91
2018-05-03T03:42:45.639Z,12.9
2018-05-03T03:43:45.633Z,12.87
2018-05-03T03:44:45.671Z,12.87
2018-05-03T03:45:45.667Z,12.84
2018-05-03T03:46:45.639Z,12.84
2018-05-03T03:47:45.666Z,12.83
2018-05-03T03:48:45.636Z,12.83
2018-05-03T03:49:45.744Z,12.83
2018-05-03T03:50:45.692Z,12.84
2018-05-03T03:51:45.640Z,12.86
2018-05-03T03:52:45.731Z,12.83
2018-05-03T03:53:45.631Z,12.84
2018-05-03T03:54:45.782Z,12.83
2018-05-03T03:55:45.668Z,12.84
2018-05-03T03:56:45.691Z,12.83
2018-05-03T03:57:45.658Z,12.84
2018-05-03T03:58:45.688Z,12.86
2018-05-03T03:59:45.649Z,12.83
2018-05-03T04:00:45.664Z,12.83
2018-05-03T04:01:45.655Z,12.84
2018-05-03T04:02:45.651Z,12.83
2018-05-03T04:03:45.689Z,12.82
2018-05-03T04:04:45.663Z,12.83
2018-05-03T04:05:45.684Z,12.8
2018-05-03T04:06:45.644Z,12.8
2018-05-03T04:07:45.652Z,12.82
2018-05-03T04:08:45.658Z,12.8
2018-05-03T04:09:45.667Z,12.82
2018-05-03T04:10:45.662Z,12.8
2018-05-03T04:11:45.727Z,12.77
2018-05-03T04:12:45.696Z,12.76
2018-05-03T04:13:45.644Z,12.74
2018-05-03T04:14:45.681Z,12.74
2018-05-03T04:15:45.638Z,12.76
2018-05-03T04:16:45.640Z,12.77
2018-05-03T04:17:45.693Z,12.76
2018-05-03T04:18:45.680Z,12.77
2018-05-03T04:19:45.699Z,12.76
2018-05-03T04:20:45.662Z,12.76
2018-05-03T04:21:45.666Z,12.73
2018-05-03T04:22:45.673Z,12.74
2018-05-03T04:23:45.686Z,12.72
2018-05-03T04:24:45.687Z,12.76
2018-05-03T04:25:45.664Z,12.72
2018-05-03T04:26:45.695Z,12.73
2018-05-03T04:27:45.663Z,12.72
2018-05-03T04:28:45.651Z,12.74
2018-05-03T04:29:45.916Z,12.72
2018-05-03T04:30:45.669Z,12.74
2018-05-03T04:31:45.674Z,12.72
2018-05-03T04:32:45.674Z,12.7
2018-05-03T04:33:45.664Z,12.72
2018-05-03T04:34:45.689Z,12.65
2018-05-03T04:35:45.661Z,12.63
2018-05-03T04:36:45.689Z,12.65
2018-05-03T04:37:46.744Z,12.62
2018-05-03T04:38:45.877Z,12.59
2018-05-03T04:39:45.693Z,12.55
2018-05-03T04:40:45.659Z,12.53
2018-05-03T04:41:45.692Z,12.53
2018-05-03T04:42:45.683Z,12.53
2018-05-03T04:43:45.705Z,12.53
2018-05-03T04:44:45.694Z,12.52
2018-05-03T04:45:45.712Z,12.52
2018-05-03T04:46:45.661Z,12.48
2018-05-03T04:47:45.674Z,12.38
2018-05-03T04:48:45.685Z,12.32
2018-05-03T04:49:45.703Z,12.34
2018-05-03T04:50:45.870Z,12.31
2018-05-03T04:51:45.760Z,12.38
2018-05-03T04:52:45.681Z,12.39
2018-05-03T04:53:45.749Z,12.37
2018-05-03T04:54:45.872Z,12.37
2018-05-03T04:55:45.718Z,12.35
2018-05-03T04:56:45.702Z,12.32
2018-05-03T04:57:45.675Z,12.34
2018-05-03T04:58:45.677Z,12.34
2018-05-03T04:59:45.703Z,12.34
2018-05-03T05:00:45.688Z,12.32
2018-05-03T05:01:45.671Z,12.25
2018-05-03T05:02:45.688Z,12.23
2018-05-03T05:03:45.674Z,12.27
2018-05-03T05:04:45.851Z,12.16
2018-05-03T05:05:45.696Z,12.2
2018-05-03T05:06:45.676Z,12.21
2018-05-03T05:07:45.755Z,12.16
2018-05-03T05:08:45.687Z,12.23
2018-05-03T05:09:45.739Z,12.17
2018-05-03T05:10:45.691Z,12.18
2018-05-03T05:11:45.695Z,12.17
2018-05-03T05:12:45.691Z,12.17
2018-05-03T05:13:45.694Z,12.1
2018-05-03T05:14:45.725Z,12.16
2018-05-03T05:15:45.692Z,12.17
2018-05-03T05:16:45.699Z,12.17
2018-05-03T05:17:45.719Z,12.16
2018-05-03T05:18:45.687Z,12.08
2018-05-03T05:19:45.693Z,12.1
2018-05-03T05:20:45.690Z,12.04
2018-05-03T05:21:45.777Z,12.03
2018-05-03T05:22:45.710Z,11.97
2018-05-03T05:23:45.683Z,11.97
2018-05-03T05:24:45.695Z,12.01
2018-05-03T05:25:45.697Z,11.96
2018-05-03T05:26:45.680Z,11.98
2018-05-03T05:27:45.738Z,11.96
2018-05-03T05:28:45.665Z,12.01
2018-05-03T05:29:45.727Z,11.98
2018-05-03T05:30:45.958Z,11.97
2018-05-03T05:31:45.714Z,11.98
2018-05-03T05:32:45.702Z,12.01
2018-05-03T05:33:45.719Z,12.04
2018-05-03T05:34:45.727Z,11.97
2018-05-03T05:35:45.697Z,11.96
2018-05-03T05:36:45.679Z,11.98
2018-05-03T05:37:45.689Z,12.03
2018-05-03T05:38:46.003Z,12.07
2018-05-03T05:39:45.735Z,12.08
2018-05-03T05:40:45.711Z,12.07
2018-05-03T05:41:45.674Z,12.05
2018-05-03T05:42:45.718Z,11.98
2018-05-03T05:43:45.715Z,11.92
2018-05-03T05:44:45.805Z,11.96
2018-05-03T05:45:45.758Z,11.94
2018-05-03T05:46:45.719Z,11.97
2018-05-03T05:47:45.708Z,11.98
2018-05-03T05:48:45.722Z,11.97
2018-05-03T05:49:45.687Z,11.97
2018-05-03T05:50:45.673Z,12
2018-05-03T05:51:45.752Z,12.01
2018-05-03T05:52:45.698Z,11.98
2018-05-03T05:53:45.724Z,12.04
2018-05-03T05:54:45.709Z,12.04
2018-05-03T05:55:45.707Z,12.11
2018-05-03T05:56:45.879Z,12.13
2018-05-03T05:57:45.700Z,12.17
2018-05-03T05:58:45.707Z,12.21
2018-05-03T05:59:45.817Z,12.28
2018-05-03T06:00:45.684Z,12.27
2018-05-03T06:01:45.877Z,12.32
2018-05-03T06:02:45.702Z,12.34
2018-05-03T06:03:45.672Z,12.37
2018-05-03T06:04:45.690Z,12.41
2018-05-03T06:05:45.691Z,12.37
2018-05-03T06:06:45.837Z,12.42
2018-05-03T06:07:45.697Z,12.45
2018-05-03T06:08:45.691Z,12.42
2018-05-03T06:09:45.735Z,12.48
2018-05-03T06:10:45.710Z,12.49
2018-05-03T06:11:45.730Z,12.51
2018-05-03T06:12:45.701Z,12.48
2018-05-03T06:13:45.699Z,12.48
2018-05-03T06:14:45.695Z,12.44
2018-05-03T06:15:45.797Z,12.42
2018-05-03T06:16:45.696Z,12.44
2018-05-03T06:17:45.710Z,12.44
2018-05-03T06:18:45.707Z,12.49
2018-05-03T06:19:45.694Z,12.46
2018-05-03T06:20:45.717Z,12.48
2018-05-03T06:21:45.800Z,12.42
2018-05-03T06:22:45.719Z,12.44
2018-05-03T06:23:45.707Z,12.48
2018-05-03T06:24:45.742Z,12.48
2018-05-03T06:25:45.719Z,12.52
2018-05-03T06:26:45.704Z,12.55
2018-05-03T06:27:45.719Z,12.53
2018-05-03T06:28:45.757Z,12.53
2018-05-03T06:29:45.702Z,12.49
2018-05-03T06:30:45.752Z,12.46
2018-05-03T06:31:45.728Z,12.52
2018-05-03T06:32:45.704Z,12.52
2018-05-03T06:33:45.714Z,12.46
2018-05-03T06:34:46.988Z,12.52
2018-05-03T06:35:45.713Z,12.48
2018-05-03T06:36:45.715Z,12.49
2018-05-03T06:37:45.759Z,12.44
2018-05-03T06:38:45.880Z,12.45
2018-05-03T06:39:45.716Z,12.44
2018-05-03T06:40:45.771Z,12.39
2018-05-03T06:41:45.719Z,12.41
2018-05-03T06:42:45.756Z,12.42
2018-05-03T06:43:45.690Z,12.44
2018-05-03T06:44:45.736Z,12.45
2018-05-03T06:45:45.704Z,12.45
2018-05-03T06:46:45.714Z,12.49
2018-05-03T06:47:45.817Z,12.51
2018-05-03T06:48:45.707Z,12.51
2018-05-03T06:49:45.718Z,12.57
2018-05-03T06:50:45.733Z,12.6
2018-05-03T06:51:45.702Z,12.6
2018-05-03T06:52:45.698Z,12.67
2018-05-03T06:53:45.767Z,12.72
2018-05-03T06:54:45.891Z,12.74
2018-05-03T06:55:45.696Z,12.79
2018-05-03T06:56:45.723Z,12.86
2018-05-03T06:57:45.714Z,12.88
2018-05-03T06:58:45.720Z,12.88
2018-05-03T06:59:45.714Z,12.94
2018-05-03T07:00:45.774Z,12.93
2018-05-03T07:01:45.734Z,12.97
2018-05-03T07:02:45.725Z,13
2018-05-03T07:03:45.728Z,13.01
2018-05-03T07:04:45.716Z,12.99
2018-05-03T07:05:45.713Z,12.99
2018-05-03T07:06:45.762Z,13.06
2018-05-03T07:07:45.749Z,13.07
2018-05-03T07:08:45.717Z,13.11
2018-05-03T07:09:45.722Z,13.13
2018-05-03T07:10:45.717Z,13.11
2018-05-03T07:11:45.740Z,13.13
2018-05-03T07:12:45.720Z,13.14
2018-05-03T07:13:45.719Z,13.11
2018-05-03T07:14:45.748Z,13.14
2018-05-03T07:15:45.715Z,13.13
2018-05-03T07:16:45.720Z,13.13
2018-05-03T07:17:45.736Z,13.11
2018-05-03T07:18:45.733Z,13.14
2018-05-03T07:19:45.736Z,13.14
2018-05-03T07:20:45.747Z,13.15
2018-05-03T07:21:45.773Z,13.13
2018-05-03T07:22:45.725Z,13.13
2018-05-03T07:23:45.757Z,13.08
2018-05-03T07:24:45.736Z,13.13
2018-05-03T07:25:45.730Z,13.15
2018-05-03T07:26:45.718Z,13.15
2018-05-03T07:27:45.753Z,13.17
2018-05-03T07:28:45.745Z,13.15
2018-05-03T07:29:45.730Z,13.15
2018-05-03T07:30:45.758Z,13.15
2018-05-03T07:31:45.757Z,13.15
2018-05-03T07:32:45.771Z,13.15
2018-05-03T07:33:45.730Z,13.15
2018-05-03T07:34:45.978Z,13.21
2018-05-03T07:35:45.767Z,13.21
2018-05-03T07:36:45.745Z,13.21
2018-05-03T07:37:45.776Z,13.24
2018-05-03T07:38:45.742Z,13.25
2018-05-03T07:39:45.739Z,13.21
2018-05-03T07:40:46.386Z,13.21
2018-05-03T07:41:45.735Z,13.18
2018-05-03T07:42:45.805Z,13.25
2018-05-03T07:43:45.759Z,13.25
2018-05-03T07:44:45.805Z,13.27
2018-05-03T07:45:46.116Z,13.31
2018-05-03T07:46:45.771Z,13.34
2018-05-03T07:47:45.763Z,13.35
2018-05-03T07:48:45.780Z,13.38
2018-05-03T07:49:45.731Z,13.39
2018-05-03T07:50:45.769Z,13.42
2018-05-03T07:51:45.780Z,13.46
2018-05-03T07:52:45.770Z,13.45
2018-05-03T07:53:45.739Z,13.49
2018-05-03T07:54:45.740Z,13.5
2018-05-03T07:55:45.742Z,13.56
2018-05-03T07:56:46.072Z,13.59
2018-05-03T07:57:45.783Z,13.6
2018-05-03T07:58:45.751Z,13.63
2018-05-03T07:59:45.730Z,13.66
2018-05-03T08:00:45.745Z,13.64
2018-05-03T08:01:45.748Z,13.69
2018-05-03T08:02:45.754Z,13.73
2018-05-03T08:03:45.742Z,13.74
2018-05-03T08:04:45.995Z,13.7
2018-05-03T08:05:45.745Z,13.73
2018-05-03T08:06:45.765Z,13.73
2018-05-03T08:07:46.590Z,13.67
2018-05-03T08:08:45.820Z,13.73
2018-05-03T08:09:45.837Z,13.69
2018-05-03T08:10:45.744Z,13.62
2018-05-03T08:11:45.762Z,13.6
2018-05-03T08:12:45.739Z,13.59
2018-05-03T08:13:45.728Z,13.59
2018-05-03T08:14:45.743Z,13.6
2018-05-03T08:15:45.740Z,13.6
2018-05-03T08:16:45.756Z,13.66
2018-05-03T08:17:45.752Z,13.64
2018-05-03T08:18:45.757Z,13.6
2018-05-03T08:19:45.750Z,13.62
2018-05-03T08:20:45.781Z,13.63
2018-05-03T08:21:45.795Z,13.69
2018-05-03T08:22:45.749Z,13.66
2018-05-03T08:23:45.769Z,13.67
2018-05-03T08:24:45.759Z,13.69
2018-05-03T08:25:45.758Z,13.73
2018-05-03T08:26:45.776Z,13.73
2018-05-03T08:27:45.875Z,13.74
2018-05-03T08:28:45.771Z,13.76
2018-05-03T08:29:45.749Z,13.66
2018-05-03T08:30:45.782Z,13.7
2018-05-03T08:31:46.024Z,13.76
2018-05-03T08:32:45.830Z,13.82
2018-05-03T08:33:45.827Z,13.87
2018-05-03T08:34:45.788Z,13.8
2018-05-03T08:35:45.767Z,13.83
2018-05-03T08:36:45.772Z,13.9
2018-05-03T08:37:45.769Z,13.89
2018-05-03T08:38:45.769Z,13.96
2018-05-03T08:39:45.769Z,13.94
2018-05-03T08:40:45.777Z,13.96
2018-05-03T08:41:45.909Z,13.98
2018-05-03T08:42:45.760Z,13.97
2018-05-03T08:43:45.759Z,14
2018-05-03T08:44:45.788Z,13.94
2018-05-03T08:45:45.768Z,13.96
2018-05-03T08:46:45.786Z,13.97
2018-05-03T08:47:45.809Z,13.93
2018-05-03T08:48:45.772Z,13.91
2018-05-03T08:49:45.821Z,13.97
2018-05-03T08:50:45.756Z,14.02
2018-05-03T08:51:45.781Z,14.1
2018-05-03T08:52:45.788Z,14.07
2018-05-03T08:53:45.789Z,14.18
2018-05-03T08:54:45.819Z,14.25
2018-05-03T08:55:45.896Z,14.35
2018-05-03T08:56:45.781Z,14.42
2018-05-03T08:57:45.787Z,14.42
2018-05-03T08:58:45.947Z,14.43
2018-05-03T08:59:45.832Z,14.49
2018-05-03T09:00:45.758Z,14.59
2018-05-03T09:01:46.076Z,14.64
2018-05-03T09:02:45.778Z,14.69
2018-05-03T09:03:45.785Z,14.8
2018-05-03T09:04:45.782Z,14.69
2018-05-03T09:05:45.948Z,14.67
2018-05-03T09:06:45.775Z,14.76
2018-05-03T09:07:45.919Z,14.8
2018-05-03T09:08:45.794Z,14.83
2018-05-03T09:09:45.932Z,14.9
2018-05-03T09:10:45.795Z,14.92
2018-05-03T09:11:45.817Z,14.92
2018-05-03T09:12:45.786Z,14.98
2018-05-03T09:13:45.782Z,14.92
2018-05-03T09:14:45.895Z,14.95
2018-05-03T09:15:45.818Z,15
2018-05-03T09:16:45.791Z,14.95
2018-05-03T09:17:45.822Z,15.05
2018-05-03T09:18:45.781Z,15.09
2018-05-03T09:19:45.799Z,15.14
2018-05-03T09:20:45.777Z,15.23
2018-05-03T09:21:45.777Z,15.25
2018-05-03T09:22:45.807Z,15.29
2018-05-03T09:23:45.792Z,15.36
2018-05-03T09:24:45.788Z,15.43
2018-05-03T09:25:45.789Z,15.43
2018-05-03T09:26:45.869Z,15.5
2018-05-03T09:27:45.791Z,15.47
2018-05-03T09:28:45.789Z,15.49
2018-05-03T09:29:45.824Z,15.34
2018-05-03T09:30:45.790Z,15.39
2018-05-03T09:31:45.794Z,15.38
2018-05-03T09:32:45.778Z,15.36
2018-05-03T09:33:45.810Z,15.41
2018-05-03T09:34:45.801Z,15.36
2018-05-03T09:35:45.820Z,15.47
2018-05-03T09:36:45.825Z,15.5
2018-05-03T09:37:45.787Z,15.49
2018-05-03T09:38:45.799Z,15.54
2018-05-03T09:39:45.802Z,15.49
2018-05-03T09:40:45.831Z,15.42
2018-05-03T09:41:45.799Z,15.43
2018-05-03T09:42:45.790Z,15.46
2018-05-03T09:43:45.793Z,15.5
2018-05-03T09:44:46.070Z,15.54
2018-05-03T09:45:45.853Z,15.59
2018-05-03T09:46:45.848Z,15.67
2018-05-03T09:47:45.951Z,15.71
2018-05-03T09:48:45.805Z,15.59
2018-05-03T09:49:45.947Z,15.57
2018-05-03T09:50:45.877Z,15.66
2018-05-03T09:51:45.881Z,15.69
2018-05-03T09:52:45.931Z,15.76
2018-05-03T09:53:46.040Z,15.8
2018-05-03T09:54:45.827Z,15.69
2018-05-03T09:55:45.811Z,15.67
2018-05-03T09:56:45.787Z,15.71
2018-05-03T09:57:45.897Z,15.67
2018-05-03T09:58:45.847Z,15.73
2018-05-03T09:59:45.920Z,15.74
2018-05-03T10:00:45.860Z,15.8
2018-05-03T10:01:45.825Z,15.84
2018-05-03T10:02:45.861Z,15.9
2018-05-03T10:03:45.790Z,15.9
2018-05-03T10:04:46.137Z,15.94
2018-05-03T10:05:45.893Z,15.9
2018-05-03T10:06:45.829Z,15.82
2018-05-03T10:07:45.829Z,15.82
2018-05-03T10:08:45.814Z,15.87
2018-05-03T10:09:45.818Z,15.88
2018-05-03T10:10:45.847Z,15.94
2018-05-03T10:11:45.830Z,16.02
2018-05-03T10:12:45.839Z,16.15
2018-05-03T10:13:45.803Z,16.14
2018-05-03T10:14:45.840Z,16.02
2018-05-03T10:15:45.862Z,16.02
2018-05-03T10:16:45.838Z,16.04
2018-05-03T10:17:45.855Z,16.15
2018-05-03T10:18:45.960Z,16.24
2018-05-03T10:19:45.934Z,16.26
2018-05-03T10:20:45.820Z,16.29
2018-05-03T10:21:45.823Z,16.37
2018-05-03T10:22:45.838Z,16.39
2018-05-03T10:23:45.948Z,16.35
2018-05-03T10:24:45.875Z,16.39
2018-05-03T10:25:45.842Z,16.24
2018-05-03T10:26:45.866Z,16.36
2018-05-03T10:27:45.869Z,16.32
2018-05-03T10:28:45.850Z,16.29
2018-05-03T10:29:45.803Z,16.33
2018-05-03T10:30:45.856Z,16.36
2018-05-03T10:31:45.894Z,16.39
2018-05-03T10:32:45.829Z,16.43
2018-05-03T10:33:45.863Z,16.52
2018-05-03T10:34:45.840Z,16.53
2018-05-03T10:35:46.090Z,16.64
2018-05-03T10:36:45.827Z,16.66
2018-05-03T10:37:45.824Z,16.59
2018-05-03T10:38:45.807Z,16.56
2018-05-03T10:39:45.849Z,16.56
2018-05-03T10:40:45.835Z,16.56
2018-05-03T10:41:45.832Z,16.6
2018-05-03T10:42:45.847Z,16.68
2018-05-03T10:43:46.132Z,16.73
2018-05-03T10:44:45.839Z,16.78
2018-05-03T10:45:45.831Z,16.77
2018-05-03T10:46:45.835Z,16.8
2018-05-03T10:47:45.829Z,16.86
2018-05-03T10:48:45.849Z,16.84
2018-05-03T10:49:45.856Z,16.77
2018-05-03T10:50:45.855Z,16.73
2018-05-03T10:51:45.861Z,16.8
2018-05-03T10:52:45.897Z,16.98
2018-05-03T10:53:45.819Z,17.01
2018-05-03T10:54:45.955Z,17.08
2018-05-03T10:55:45.888Z,17.05
2018-05-03T10:56:45.911Z,17.15
2018-05-03T10:57:45.845Z,17.25
2018-05-03T10:58:45.858Z,17.32
2018-05-03T10:59:45.838Z,17.33
2018-05-03T11:00:45.869Z,17.4
2018-05-03T11:01:45.900Z,17.49
2018-05-03T11:02:45.905Z,17.49
2018-05-03T11:03:46.140Z,17.61
2018-05-03T11:04:45.875Z,17.52
2018-05-03T11:05:45.874Z,17.44
2018-05-03T11:06:45.893Z,17.56
2018-05-03T11:07:45.877Z,17.42
2018-05-03T11:08:45.893Z,17.35
2018-05-03T11:09:45.846Z,17.32
2018-05-03T11:10:45.862Z,17.39
2018-05-03T11:11:45.831Z,17.49
2018-05-03T11:12:45.833Z,17.6
2018-05-03T11:13:45.850Z,17.63
2018-05-03T11:14:45.939Z,17.58
2018-05-03T11:15:45.859Z,17.52
2018-05-03T11:16:45.979Z,17.63
2018-05-03T11:17:45.924Z,17.78
2018-05-03T11:18:45.892Z,17.87
2018-05-03T11:19:45.862Z,17.8
2018-05-03T11:20:45.969Z,17.88
2018-05-03T11:21:45.864Z,18.04
2018-05-03T11:22:45.892Z,18.17
2018-05-03T11:23:46.032Z,18.05
2018-05-03T11:24:45.953Z,17.88
2018-05-03T11:25:45.891Z,18.01
2018-05-03T11:26:45.849Z,18.05
2018-05-03T11:27:45.933Z,18.06
2018-05-03T11:28:45.991Z,18.16
2018-05-03T11:29:46.018Z,18.02
2018-05-03T11:30:45.996Z,18.15
2018-05-03T11:31:45.881Z,18.22
2018-05-03T11:32:45.831Z,18.22
2018-05-03T11:33:45.841Z,18.3
2018-05-03T11:34:45.879Z,18.36
2018-05-03T11:35:45.841Z,18.26
2018-05-03T11:36:46.248Z,18.4
2018-05-03T11:37:45.870Z,18.54
2018-05-03T11:38:45.866Z,18.5
2018-05-03T11:39:45.877Z,18.49
2018-05-03T11:40:45.901Z,18.43
2018-05-03T11:41:45.858Z,18.47
2018-05-03T11:42:46.309Z,18.44
2018-05-03T11:43:45.849Z,18.35
2018-05-03T11:44:45.862Z,18.44
2018-05-03T11:45:45.942Z,18.47
2018-05-03T11:46:45.861Z,18.57
2018-05-03T11:47:45.893Z,18.59
2018-05-03T11:48:46.007Z,18.54
2018-05-03T11:49:45.841Z,18.52
2018-05-03T11:50:45.872Z,18.42
2018-05-03T11:51:45.841Z,18.44
2018-05-03T11:52:45.892Z,18.63
2018-05-03T11:53:45.858Z,18.46
2018-05-03T11:54:45.978Z,18.6
2018-05-03T11:55:45.923Z,18.66
2018-05-03T11:56:45.851Z,18.67
2018-05-03T11:57:46.073Z,18.68
2018-05-03T11:58:45.859Z,18.72
2018-05-03T11:59:45.967Z,18.88
2018-05-03T12:00:45.871Z,18.95
2018-05-03T12:01:45.857Z,18.98
2018-05-03T12:02:45.869Z,18.88
2018-05-03T12:03:45.867Z,18.97
2018-05-03T12:04:45.991Z,18.75
2018-05-03T12:05:45.879Z,18.88
2018-05-03T12:06:46.134Z,18.71
2018-05-03T12:07:45.974Z,18.75
2018-05-03T12:08:45.888Z,18.71
2018-05-03T12:09:45.990Z,18.53
2018-05-03T12:10:45.884Z,18.57
2018-05-03T12:11:46.156Z,18.57
2018-05-03T12:12:45.930Z,18.56
2018-05-03T12:13:45.939Z,18.59
2018-05-03T12:14:45.988Z,18.74
2018-05-03T12:15:45.941Z,18.81
2018-05-03T12:16:45.920Z,19.02
2018-05-03T12:17:45.935Z,18.94
2018-05-03T12:18:46.005Z,18.94
2018-05-03T12:19:45.898Z,18.97
2018-05-03T12:20:45.895Z,19.02
2018-05-03T12:21:45.908Z,18.98
2018-05-03T12:22:45.929Z,18.84
2018-05-03T12:23:45.909Z,19.03
2018-05-03T12:24:45.901Z,18.98
2018-05-03T12:25:45.943Z,18.95
2018-05-03T12:26:46.039Z,19.05
2018-05-03T12:27:45.885Z,19.21
2018-05-03T12:28:46.029Z,19.06
2018-05-03T12:29:45.927Z,19.01
2018-05-03T12:30:45.886Z,18.95
2018-05-03T12:31:45.944Z,18.99
2018-05-03T12:32:45.898Z,18.98
2018-05-03T12:33:45.873Z,19.1
2018-05-03T12:34:46.103Z,19.08
2018-05-03T12:35:45.910Z,19.15
2018-05-03T12:36:45.892Z,19.37
2018-05-03T12:37:45.981Z,19.47
2018-05-03T12:38:45.966Z,19.42
2018-05-03T12:39:45.887Z,19.5
2018-05-03T12:40:45.912Z,19.71
2018-05-03T12:41:45.906Z,19.6
2018-05-03T12:42:45.896Z,19.65
2018-05-03T12:43:45.868Z,19.54
2018-05-03T12:44:45.873Z,19.54
2018-05-03T12:45:45.880Z,19.68
2018-05-03T12:46:45.884Z,19.51
2018-05-03T12:47:45.925Z,19.54
2018-05-03T12:48:45.891Z,19.43
2018-05-03T12:49:45.883Z,19.43
2018-05-03T12:50:45.888Z,19.54
2018-05-03T12:51:45.992Z,19.56
2018-05-03T12:52:45.924Z,19.57
2018-05-03T12:53:45.931Z,19.53
2018-05-03T12:54:45.902Z,19.51
2018-05-03T12:55:45.908Z,19.54